createdAt,value
2022-10-22T00:01:09.435Z,9.07
2022-10-22T00:03:39.927Z,9.17
2022-10-22T00:06:07.903Z,9.26
2022-10-22T00:08:35.794Z,9.33
2022-10-22T00:11:22.061Z,9.31
2022-10-22T00:13:51.139Z,9.33
2022-10-22T00:16:19.033Z,9.32
2022-10-22T00:18:46.904Z,9.28
2022-10-22T00:21:14.669Z,9.26
2022-10-22T00:23:43.486Z,9.26
2022-10-22T00:26:12.098Z,9.30
2022-10-22T00:28:40.044Z,9.34
2022-10-22T00:31:08.061Z,9.34
2022-10-22T00:33:35.752Z,9.33
2022-10-22T00:36:03.738Z,9.26
2022-10-22T00:38:31.507Z,9.22
2022-10-22T00:40:59.328Z,9.22
2022-10-22T00:43:27.850Z,9.20
2022-10-22T00:45:55.735Z,9.19
2022-10-22T00:48:27.308Z,9.20
2022-10-22T00:51:08.366Z,9.21
2022-10-22T00:53:40.879Z,9.20
2022-10-22T00:56:10.335Z,9.20
2022-10-22T00:58:44.025Z,9.21
2022-10-22T01:01:16.703Z,9.20
2022-10-22T01:03:44.792Z,9.19
2022-10-22T01:06:20.147Z,9.19
2022-10-22T01:09:06.100Z,9.17
2022-10-22T01:11:52.838Z,9.19
2022-10-22T01:14:52.926Z,9.23
2022-10-22T01:17:26.324Z,9.25
2022-10-22T01:20:06.998Z,9.24
2022-10-22T01:22:47.751Z,9.24
2022-10-22T01:25:25.299Z,9.24
2022-10-22T01:28:11.442Z,9.25
2022-10-22T01:30:40.732Z,9.26
2022-10-22T01:33:12.711Z,9.26
2022-10-22T01:35:44.565Z,9.28
2022-10-22T01:38:17.485Z,9.29
2022-10-22T01:40:47.479Z,9.32
2022-10-22T01:43:15.681Z,9.36
2022-10-22T01:45:48.747Z,9.37
2022-10-22T01:48:35.133Z,9.38
2022-10-22T01:51:05.873Z,9.40
2022-10-22T01:53:41.190Z,9.41
2022-10-22T01:56:36.343Z,9.42
2022-10-22T01:59:08.572Z,9.46
2022-10-22T02:01:59.241Z,9.48
2022-10-22T02:04:33.877Z,9.49
2022-10-22T02:07:06.475Z,9.49
2022-10-22T02:09:35.870Z,9.46
2022-10-22T02:12:07.007Z,9.45
2022-10-22T02:14:39.562Z,9.42
2022-10-22T02:17:13.516Z,9.43
2022-10-22T02:19:55.919Z,9.43
2022-10-22T02:22:26.349Z,9.44
2022-10-22T02:24:54.037Z,9.42
2022-10-22T02:27:25.835Z,9.43
2022-10-22T02:30:28.056Z,9.48
2022-10-22T02:33:03.372Z,9.53
2022-10-22T02:35:32.440Z,9.61
2022-10-22T02:38:01.763Z,9.71
2022-10-22T02:40:31.487Z,9.77
2022-10-22T02:42:59.459Z,9.80
2022-10-22T02:45:27.451Z,9.84
2022-10-22T02:47:55.219Z,9.89
2022-10-22T02:50:22.931Z,9.91
2022-10-22T02:52:51.152Z,9.95
2022-10-22T02:55:19.003Z,9.99
2022-10-22T02:57:48.519Z,10.03
2022-10-22T03:00:18.458Z,10.08
2022-10-22T03:02:46.921Z,10.13
2022-10-22T03:05:15.743Z,10.16
2022-10-22T03:09:01.046Z,10.17
2022-10-22T06:21:31.208Z,11.07
2022-10-22T06:24:00.725Z,11.08
2022-10-22T06:26:29.802Z,11.10
2022-10-22T06:28:58.804Z,11.09
2022-10-22T06:31:27.999Z,11.15
2022-10-22T06:33:57.213Z,11.17
2022-10-22T06:36:25.199Z,11.16
2022-10-22T06:38:54.999Z,11.19
2022-10-22T06:41:28.568Z,11.26
2022-10-22T06:43:58.079Z,11.29
2022-10-22T06:46:26.864Z,11.26
2022-10-22T06:48:58.044Z,11.28
2022-10-22T06:51:27.853Z,11.31
2022-10-22T06:53:56.940Z,11.42
2022-10-22T06:56:27.248Z,11.49
2022-10-22T06:58:57.095Z,11.50
2022-10-22T07:01:27.678Z,11.54
2022-10-22T07:03:55.946Z,11.53
2022-10-22T07:06:25.927Z,11.60
2022-10-22T07:08:55.850Z,11.66
2022-10-22T07:11:43.058Z,11.62
2022-10-22T07:14:12.041Z,11.55
2022-10-22T07:16:43.207Z,11.51
2022-10-22T07:19:12.216Z,11.49
2022-10-22T07:21:40.072Z,11.51
2022-10-22T07:24:08.457Z,11.51
2022-10-22T07:26:37.150Z,11.56
2022-10-22T07:29:05.225Z,11.58
2022-10-22T07:31:33.014Z,11.59
2022-10-22T07:34:00.857Z,11.58
2022-10-22T07:36:28.726Z,11.56
2022-10-22T07:38:58.399Z,11.58
2022-10-22T07:41:28.704Z,11.60
2022-10-22T07:43:58.225Z,11.62
2022-10-22T07:46:27.358Z,11.65
2022-10-22T07:48:55.475Z,11.69
2022-10-22T07:51:23.639Z,11.69
2022-10-22T07:53:51.816Z,11.68
2022-10-22T07:56:45.158Z,11.70
2022-10-22T07:59:12.927Z,11.76
2022-10-22T08:01:40.790Z,11.79
2022-10-22T08:04:10.054Z,11.83
2022-10-22T08:06:38.792Z,11.86
2022-10-22T08:09:07.081Z,11.88
2022-10-22T08:11:35.722Z,11.89
2022-10-22T08:14:04.052Z,11.94
2022-10-22T08:16:32.025Z,11.96
2022-10-22T08:18:59.972Z,11.98
2022-10-22T08:21:27.859Z,11.98
2022-10-22T08:23:55.790Z,11.96
2022-10-22T08:26:24.013Z,11.92
2022-10-22T08:28:51.887Z,11.92
2022-10-22T08:31:19.652Z,11.89
2022-10-22T08:33:47.407Z,11.92
2022-10-22T08:36:15.720Z,11.96
2022-10-22T08:38:43.536Z,11.99
2022-10-22T08:41:18.440Z,12.07
2022-10-22T08:44:05.001Z,12.17
2022-10-22T08:47:03.189Z,12.22
2022-10-22T08:49:39.851Z,12.23
2022-10-22T08:52:18.199Z,12.22
2022-10-22T08:54:49.039Z,12.23
2022-10-22T08:57:41.864Z,12.30
2022-10-22T09:00:19.346Z,12.33
2022-10-22T09:02:53.653Z,12.31
2022-10-22T09:05:34.403Z,12.33
2022-10-22T09:08:02.677Z,12.33
2022-10-22T09:10:36.302Z,12.35
2022-10-22T09:13:04.342Z,12.35
2022-10-22T09:15:32.104Z,12.37
2022-10-22T09:18:31.200Z,12.37
2022-10-22T09:22:15.117Z,12.38
2022-10-22T09:24:48.734Z,12.42
2022-10-22T09:27:26.411Z,12.42
2022-10-22T09:29:54.087Z,12.48
2022-10-22T09:32:21.902Z,12.55
2022-10-22T09:34:55.205Z,12.60
2022-10-22T09:40:47.512Z,12.71
2022-10-22T09:43:15.606Z,12.76
2022-10-22T09:45:44.720Z,12.85
2022-10-22T09:48:15.354Z,12.93
2022-10-22T09:50:55.091Z,12.96
2022-10-22T09:53:28.746Z,13.06
2022-10-22T09:55:59.640Z,13.17
2022-10-22T09:58:28.671Z,13.22
2022-10-22T10:01:00.720Z,13.30
2022-10-22T10:03:32.134Z,13.33
2022-10-22T10:06:06.191Z,13.39
2022-10-22T10:08:34.324Z,13.45
2022-10-22T10:11:10.705Z,13.48
2022-10-22T10:13:56.878Z,13.45
2022-10-22T10:16:59.204Z,13.37
2022-10-22T10:19:47.009Z,13.38
2022-10-22T10:22:32.196Z,13.43
2022-10-22T10:25:12.902Z,13.42
2022-10-22T10:27:53.750Z,13.41
2022-10-22T10:30:25.774Z,13.32
2022-10-22T10:33:02.454Z,13.25
2022-10-22T10:35:42.378Z,13.24
2022-10-22T10:38:32.415Z,13.21
2022-10-22T10:41:08.158Z,13.24
2022-10-22T10:43:52.491Z,13.28
2022-10-22T10:46:40.250Z,13.31
2022-10-22T10:49:19.053Z,13.27
2022-10-22T10:51:58.743Z,13.22
2022-10-22T10:54:40.813Z,13.19
2022-10-22T10:57:33.452Z,13.15
2022-10-22T11:00:07.748Z,13.17
2022-10-22T11:03:11.815Z,13.17
2022-10-22T11:05:44.433Z,13.15
2022-10-22T11:08:20.254Z,13.14
2022-10-22T11:10:54.485Z,13.16
2022-10-22T11:13:45.348Z,13.16
2022-10-22T11:16:31.262Z,13.17
2022-10-22T11:19:59.831Z,13.15
2022-10-22T11:22:36.783Z,13.20
2022-10-22T11:25:13.596Z,13.29
2022-10-22T11:27:54.213Z,13.39
2022-10-22T11:30:24.176Z,13.47
2022-10-22T11:32:57.295Z,13.49
2022-10-22T11:35:31.794Z,13.48
2022-10-22T11:38:01.022Z,13.50
2022-10-22T11:40:28.758Z,13.58
2022-10-22T11:43:05.239Z,13.63
2022-10-22T11:45:42.513Z,13.68
2022-10-22T11:48:10.284Z,13.72
2022-10-22T11:50:56.695Z,13.74
2022-10-22T11:53:36.392Z,13.80
2022-10-22T11:56:06.953Z,13.84
2022-10-22T11:58:42.209Z,13.78
2022-10-22T12:01:10.061Z,13.80
2022-10-22T12:03:44.025Z,13.82
2022-10-22T12:06:19.821Z,13.83
2022-10-22T12:08:50.612Z,13.86
2022-10-22T12:11:37.462Z,13.88
2022-10-22T12:14:16.481Z,13.88
2022-10-22T12:16:57.541Z,13.88
2022-10-22T12:19:40.838Z,13.86
2022-10-22T12:22:24.098Z,13.89
2022-10-22T12:24:54.629Z,13.89
2022-10-22T12:27:27.627Z,13.91
2022-10-22T12:30:00.295Z,13.91
2022-10-22T12:32:37.377Z,13.88
2022-10-22T12:35:09.259Z,13.87
2022-10-22T12:37:38.374Z,13.86
2022-10-22T12:40:22.724Z,13.83
2022-10-22T12:43:16.150Z,13.81
2022-10-22T12:45:46.127Z,13.84
2022-10-22T12:48:28.387Z,13.84
2022-10-22T12:50:59.781Z,13.83
2022-10-22T12:53:32.191Z,13.87
2022-10-22T12:56:04.362Z,13.84
2022-10-22T12:58:48.789Z,13.87
2022-10-22T13:01:18.570Z,13.94
2022-10-22T13:03:50.695Z,14.01
2022-10-22T13:06:18.347Z,13.97
2022-10-22T13:09:19.118Z,13.91
2022-10-22T13:11:58.268Z,13.90
2022-10-22T13:14:31.765Z,13.86
2022-10-22T13:17:18.531Z,13.80
2022-10-22T13:20:20.461Z,13.78
2022-10-22T13:23:03.370Z,13.80
2022-10-22T13:25:37.386Z,13.78
2022-10-22T13:28:08.225Z,13.73
2022-10-22T13:30:38.126Z,13.71
2022-10-22T13:33:20.247Z,13.75
2022-10-22T13:35:48.133Z,13.73
2022-10-22T13:38:19.643Z,13.71
2022-10-22T13:40:48.146Z,13.69
2022-10-22T13:43:16.781Z,13.69
2022-10-22T13:45:46.123Z,13.67
2022-10-22T13:48:16.264Z,13.63
2022-10-22T13:50:44.132Z,13.67
2022-10-22T13:53:37.945Z,13.72
2022-10-22T13:56:05.725Z,13.74
2022-10-22T13:58:33.433Z,13.71
2022-10-22T14:01:02.630Z,13.73
2022-10-22T14:03:34.398Z,13.76
2022-10-22T14:06:02.264Z,13.80
2022-10-22T14:08:30.097Z,13.81
2022-10-22T14:10:57.922Z,13.78
2022-10-22T14:13:26.710Z,13.76
2022-10-22T14:15:54.576Z,13.76
2022-10-22T14:18:27.560Z,13.72
2022-10-22T14:20:58.960Z,13.69
2022-10-22T14:23:31.539Z,13.76
2022-10-22T14:26:00.821Z,13.78
2022-10-22T14:28:31.381Z,13.82
2022-10-22T14:31:00.228Z,13.86
2022-10-22T14:33:32.109Z,13.84
2022-10-22T14:36:01.277Z,13.87
2022-10-22T14:38:29.668Z,13.87
2022-10-22T14:40:59.583Z,13.84
2022-10-22T14:43:31.020Z,13.87
2022-10-22T14:45:59.400Z,13.88
2022-10-22T14:48:27.103Z,13.87
2022-10-22T14:50:55.231Z,13.84
2022-10-22T14:53:23.025Z,13.83
2022-10-22T14:55:51.622Z,13.82
2022-10-22T14:58:19.571Z,13.83
2022-10-22T15:00:47.315Z,13.83
2022-10-22T15:03:15.030Z,13.88
2022-10-22T15:05:44.943Z,13.96
2022-10-22T15:08:14.759Z,14.00
2022-10-22T15:10:42.774Z,14.05
2022-10-22T15:13:10.967Z,14.01
2022-10-22T15:15:42.156Z,13.96
2022-10-22T15:18:09.928Z,13.91
2022-10-22T15:20:37.749Z,13.86
2022-10-22T15:23:05.523Z,13.84
2022-10-22T15:25:33.436Z,13.80
2022-10-22T15:28:09.165Z,13.78
2022-10-22T15:30:37.823Z,13.82
2022-10-22T15:33:06.454Z,13.82
2022-10-22T15:35:34.437Z,13.83
2022-10-22T15:38:02.630Z,13.84
2022-10-22T15:40:30.338Z,13.87
2022-10-22T15:42:58.173Z,13.86
2022-10-22T15:45:25.854Z,13.88
2022-10-22T15:47:53.603Z,13.89
2022-10-22T15:50:21.356Z,13.88
2022-10-22T15:52:49.084Z,13.87
2022-10-22T15:55:16.999Z,13.87
2022-10-22T15:57:45.170Z,13.92
2022-10-22T16:00:14.032Z,13.92
2022-10-22T16:02:43.888Z,13.93
2022-10-22T16:05:11.655Z,13.93
2022-10-22T16:07:39.700Z,13.88
2022-10-22T16:10:08.204Z,13.86
2022-10-22T16:12:36.079Z,13.87
2022-10-22T16:15:04.587Z,13.89
2022-10-22T16:17:33.245Z,13.88
2022-10-22T16:20:01.072Z,13.88
2022-10-22T16:22:28.963Z,13.92
2022-10-22T16:24:56.668Z,13.91
2022-10-22T16:27:24.440Z,13.95
2022-10-22T16:29:52.103Z,14.00
2022-10-22T16:32:19.781Z,14.02
2022-10-22T16:34:47.507Z,13.99
2022-10-22T16:37:15.206Z,13.98
2022-10-22T16:39:42.979Z,13.99
2022-10-22T16:42:10.744Z,14.00
2022-10-22T16:44:38.441Z,14.05
2022-10-22T16:47:06.182Z,14.02
2022-10-22T16:49:33.870Z,14.02
2022-10-22T16:52:01.554Z,13.99
2022-10-22T16:54:29.587Z,13.94
2022-10-22T16:56:57.357Z,13.93
2022-10-22T16:59:25.228Z,13.91
2022-10-22T17:01:54.667Z,13.94
2022-10-22T17:04:23.670Z,13.99
2022-10-22T17:06:51.503Z,14.05
2022-10-22T17:09:19.562Z,14.03
2022-10-22T17:11:47.552Z,14.02
2022-10-22T17:14:15.248Z,14.07
2022-10-22T17:16:43.394Z,14.08
2022-10-22T17:19:14.536Z,14.07
2022-10-22T17:21:42.892Z,14.09
2022-10-22T17:24:10.700Z,14.08
2022-10-22T17:26:38.564Z,14.07
2022-10-22T17:29:06.948Z,14.05
2022-10-22T17:31:39.958Z,14.07
2022-10-22T17:34:14.768Z,14.13
2022-10-22T17:36:43.462Z,14.15
2022-10-22T17:39:15.725Z,14.14
2022-10-22T17:41:43.494Z,14.14
2022-10-22T17:44:12.408Z,14.13
2022-10-22T17:46:40.136Z,14.10
2022-10-22T17:49:19.754Z,14.10
2022-10-22T17:51:48.286Z,14.07
2022-10-22T17:54:16.082Z,14.02
2022-10-22T17:56:43.791Z,14.03
2022-10-22T17:59:14.251Z,14.01
2022-10-22T18:01:45.780Z,13.97
2022-10-22T18:04:16.583Z,13.99
2022-10-22T18:06:47.061Z,14.02
2022-10-22T18:09:18.485Z,14.05
2022-10-22T18:11:49.018Z,14.03
2022-10-22T18:14:18.181Z,14.01
2022-10-22T18:16:46.922Z,14.01
2022-10-22T18:19:17.469Z,14.03
2022-10-22T18:21:45.762Z,14.06
2022-10-22T18:24:15.437Z,14.01
2022-10-22T18:26:43.420Z,14.00
2022-10-22T18:29:16.946Z,14.01
2022-10-22T18:31:45.330Z,14.00
2022-10-22T18:34:16.546Z,14.00
2022-10-22T18:36:46.905Z,13.97
2022-10-22T18:39:15.902Z,13.92
2022-10-22T18:41:43.874Z,13.87
2022-10-22T18:44:14.117Z,13.83
2022-10-22T18:46:42.858Z,13.79
2022-10-22T18:49:18.338Z,13.79
2022-10-22T18:51:52.536Z,13.78
2022-10-22T18:54:24.011Z,13.74
2022-10-22T18:56:55.540Z,13.73
2022-10-22T18:59:27.319Z,13.72
2022-10-22T19:01:59.453Z,13.75
2022-10-22T19:04:33.282Z,13.79
2022-10-22T19:07:01.208Z,13.83
2022-10-22T19:09:29.154Z,13.84
2022-10-22T19:11:56.909Z,13.81
2022-10-22T19:14:24.651Z,13.79
2022-10-22T19:16:52.436Z,13.78
2022-10-22T19:19:21.995Z,13.78
2022-10-22T19:21:50.153Z,13.79
2022-10-22T19:24:19.845Z,13.81
2022-10-22T19:26:49.047Z,13.83
2022-10-22T19:29:19.724Z,13.82
2022-10-22T19:31:50.616Z,13.81
2022-10-22T19:34:19.620Z,13.78
2022-10-22T19:36:47.953Z,13.76
2022-10-22T19:39:16.693Z,13.76
2022-10-22T19:41:45.496Z,13.74
2022-10-22T19:44:13.554Z,13.74
2022-10-22T19:46:41.294Z,13.74
2022-10-22T19:49:10.003Z,13.72
2022-10-22T19:51:38.094Z,13.71
2022-10-22T19:54:10.248Z,13.69
2022-10-22T19:56:38.443Z,13.67
2022-10-22T19:59:07.031Z,13.68
2022-10-22T20:01:34.988Z,13.68
2022-10-22T20:04:03.493Z,13.71
2022-10-22T20:06:31.230Z,13.71
2022-10-22T20:08:59.171Z,13.70
2022-10-22T20:11:29.764Z,13.75
2022-10-22T20:13:58.251Z,13.80
2022-10-22T20:16:29.899Z,13.79
2022-10-22T20:19:03.872Z,13.82
2022-10-22T20:21:31.895Z,13.83
2022-10-22T20:24:00.482Z,13.83
2022-10-22T20:26:29.223Z,13.82
2022-10-22T20:28:58.151Z,13.80
2022-10-22T20:31:28.663Z,13.80
2022-10-22T20:33:58.755Z,13.82
2022-10-22T20:36:27.617Z,13.79
2022-10-22T20:39:03.670Z,13.83
2022-10-22T20:41:34.094Z,13.87
2022-10-22T20:44:02.081Z,13.87
2022-10-22T20:46:31.764Z,13.86
2022-10-22T20:49:27.186Z,13.80
2022-10-22T20:51:54.880Z,13.79
2022-10-22T20:54:22.714Z,13.82
2022-10-22T20:56:50.693Z,13.84
2022-10-22T20:59:18.864Z,13.87
2022-10-22T21:01:49.715Z,13.87
2022-10-22T21:04:19.867Z,13.87
2022-10-22T21:06:49.950Z,13.88
2022-10-22T21:09:17.739Z,13.87
2022-10-22T21:11:46.192Z,13.86
2022-10-22T21:14:15.903Z,13.85
2022-10-22T21:16:46.145Z,13.85
2022-10-22T21:19:13.825Z,13.88
2022-10-22T21:21:42.061Z,13.88
2022-10-22T21:24:10.373Z,13.90
2022-10-22T21:26:39.897Z,13.88
2022-10-22T21:29:08.469Z,13.87
2022-10-22T21:31:37.888Z,13.87
2022-10-22T21:34:05.584Z,13.87
2022-10-22T21:36:33.393Z,13.88
2022-10-22T21:39:01.399Z,13.88
2022-10-22T21:41:29.363Z,13.89
2022-10-22T21:43:57.129Z,13.91
2022-10-22T21:46:27.989Z,13.94
2022-10-22T21:48:58.632Z,13.97
2022-10-22T21:51:26.796Z,13.96
2022-10-22T21:53:55.206Z,14.00
2022-10-22T21:56:29.171Z,14.01
2022-10-22T21:58:57.054Z,14.01
2022-10-22T22:01:25.367Z,14.08
2022-10-22T22:03:53.723Z,14.09
2022-10-22T22:06:24.663Z,14.07
2022-10-22T22:08:54.937Z,14.08
2022-10-22T22:11:26.034Z,14.06
2022-10-22T22:13:55.609Z,14.05
2022-10-22T22:16:29.337Z,14.05
2022-10-22T22:18:59.607Z,14.04
2022-10-22T22:21:28.046Z,14.02
2022-10-22T22:23:57.129Z,13.98
2022-10-22T22:26:29.612Z,13.96
2022-10-22T22:28:59.790Z,13.96
2022-10-22T22:31:31.050Z,14.01
2022-10-22T22:34:13.413Z,14.01
2022-10-22T22:36:46.980Z,14.06
2022-10-22T22:39:23.872Z,14.10
2022-10-22T22:41:51.872Z,14.10
2022-10-22T22:44:19.599Z,14.12
2022-10-22T22:46:47.306Z,14.11
2022-10-22T22:49:15.152Z,14.08
2022-10-22T22:51:43.552Z,14.10
2022-10-22T22:54:11.508Z,14.05
2022-10-22T22:56:39.269Z,14.06
2022-10-22T22:59:07.164Z,14.11
2022-10-22T23:01:38.015Z,14.12
2022-10-22T23:04:11.180Z,14.11
2022-10-22T23:06:39.499Z,14.09
2022-10-22T23:09:09.556Z,14.06
2022-10-22T23:11:38.370Z,14.04
2022-10-22T23:14:08.240Z,14.02
2022-10-22T23:16:37.911Z,14.02
2022-10-22T23:19:06.298Z,13.98
2022-10-22T23:21:37.022Z,13.96
2022-10-22T23:24:08.038Z,13.95
2022-10-22T23:26:39.653Z,13.94
2022-10-22T23:29:11.960Z,13.94
2022-10-22T23:31:39.877Z,13.97
2022-10-22T23:34:09.553Z,13.99
2022-10-22T23:36:38.934Z,14.01
2022-10-22T23:39:08.998Z,14.02
2022-10-22T23:41:36.961Z,14.04
2022-10-22T23:44:05.757Z,14.06
2022-10-22T23:46:34.402Z,14.09
2022-10-22T23:49:02.240Z,14.08
2022-10-22T23:51:29.957Z,14.08
2022-10-22T23:53:59.895Z,14.07
2022-10-22T23:56:28.139Z,13.99
2022-10-22T23:58:56.997Z,13.99
